createdAt,value
2022-10-03T00:02:05.678Z,9.22
2022-10-03T00:05:21.053Z,9.18
2022-10-03T00:08:44.659Z,9.17
2022-10-03T00:12:08.654Z,9.16
2022-10-03T00:15:22.103Z,9.14
2022-10-03T00:18:49.782Z,9.12
2022-10-03T00:22:09.141Z,9.10
2022-10-03T00:25:39.110Z,9.07
2022-10-03T00:29:19.434Z,9.02
2022-10-03T00:32:45.947Z,8.99
2022-10-03T00:35:56.407Z,8.93
2022-10-03T00:39:02.661Z,8.89
2022-10-03T00:42:13.697Z,8.87
2022-10-03T00:45:55.741Z,8.91
2022-10-03T00:49:48.270Z,8.96
2022-10-03T00:53:52.151Z,9.01
2022-10-03T00:57:09.758Z,9.06
2022-10-03T01:00:17.658Z,9.05
2022-10-03T01:03:35.190Z,9.01
2022-10-03T01:06:55.126Z,8.95
2022-10-03T01:10:18.622Z,8.87
2022-10-03T01:13:35.711Z,8.86
2022-10-03T01:17:01.366Z,8.85
2022-10-03T01:20:23.282Z,8.85
2022-10-03T01:23:37.390Z,8.85
2022-10-03T01:26:51.560Z,8.83
2022-10-03T01:30:23.556Z,8.83
2022-10-03T01:33:31.771Z,8.86
2022-10-03T01:37:02.461Z,8.87
2022-10-03T01:40:20.168Z,8.86
2022-10-03T01:43:45.180Z,8.85
2022-10-03T01:46:52.599Z,8.82
2022-10-03T01:50:00.612Z,8.81
2022-10-03T01:53:08.498Z,8.82
2022-10-03T01:56:34.606Z,8.85
2022-10-03T01:59:48.504Z,8.91
2022-10-03T02:03:12.853Z,8.94
2022-10-03T02:06:32.895Z,8.95
2022-10-03T02:10:01.252Z,8.95
2022-10-03T02:13:22.073Z,8.95
2022-10-03T02:16:42.750Z,8.96
2022-10-03T02:20:24.352Z,8.98
2022-10-03T02:23:32.143Z,9.01
2022-10-03T02:26:53.350Z,9.02
2022-10-03T02:30:11.780Z,9.02
2022-10-03T02:33:49.088Z,9.03
2022-10-03T02:37:21.921Z,9.06
2022-10-03T02:40:33.147Z,9.12
2022-10-03T02:43:56.783Z,9.16
2022-10-03T02:47:36.368Z,9.22
2022-10-03T02:51:15.611Z,9.31
2022-10-03T02:54:39.460Z,9.38
2022-10-03T02:58:19.433Z,9.41
2022-10-03T03:01:42.334Z,9.44
2022-10-03T03:04:56.854Z,9.43
2022-10-03T03:08:01.354Z,9.41
2022-10-03T03:11:39.902Z,9.42
2022-10-03T03:15:04.024Z,9.41
2022-10-03T03:18:50.797Z,9.38
2022-10-03T03:22:11.258Z,9.39
2022-10-03T03:25:36.695Z,9.38
2022-10-03T03:29:03.843Z,9.38
2022-10-03T03:32:14.531Z,9.39
2022-10-03T03:35:37.815Z,9.40
2022-10-03T03:38:58.328Z,9.42
2022-10-03T03:42:19.072Z,9.45
2022-10-03T03:45:25.777Z,9.46
2022-10-03T03:49:10.612Z,9.49
2022-10-03T03:52:31.424Z,9.50
2022-10-03T03:56:02.712Z,9.51
2022-10-03T03:59:07.194Z,9.53
2022-10-03T04:02:18.621Z,9.53
2022-10-03T04:05:20.431Z,9.52
2022-10-03T04:08:38.411Z,9.52
2022-10-03T04:11:54.418Z,9.51
2022-10-03T04:14:56.163Z,9.51
2022-10-03T04:18:34.907Z,9.51
2022-10-03T04:21:57.027Z,9.49
2022-10-03T04:25:05.624Z,9.48
2022-10-03T04:28:27.569Z,9.43
2022-10-03T04:31:49.550Z,9.29
2022-10-03T04:35:33.008Z,9.25
2022-10-03T04:38:46.527Z,9.23
2022-10-03T04:42:00.316Z,9.22
2022-10-03T04:45:42.999Z,9.23
2022-10-03T04:49:12.387Z,9.25
2022-10-03T04:52:33.832Z,9.24
2022-10-03T04:55:40.707Z,9.21
2022-10-03T04:59:08.627Z,9.23
2022-10-03T05:02:28.676Z,9.27
2022-10-03T05:05:33.756Z,9.30
2022-10-03T05:08:50.203Z,9.34
2022-10-03T05:12:30.036Z,9.36
2022-10-03T05:15:56.926Z,9.40
2022-10-03T05:19:17.387Z,9.35
2022-10-03T05:22:24.939Z,9.34
2022-10-03T05:25:43.825Z,9.52
2022-10-03T05:29:11.366Z,9.67
2022-10-03T05:32:28.342Z,9.78
2022-10-03T05:35:51.521Z,9.84
2022-10-03T05:39:18.359Z,9.89
2022-10-03T05:42:51.900Z,9.96
2022-10-03T05:46:02.737Z,10.02
2022-10-03T05:49:46.285Z,10.04
2022-10-03T05:53:02.705Z,10.11
2022-10-03T05:56:19.743Z,10.20
2022-10-03T05:59:59.460Z,10.28
2022-10-03T06:03:38.650Z,10.32
2022-10-03T06:06:43.648Z,10.36
2022-10-03T06:10:08.746Z,10.39
2022-10-03T06:13:19.688Z,10.43
2022-10-03T06:16:32.714Z,10.49
2022-10-03T06:19:56.654Z,10.58
2022-10-03T06:23:36.205Z,10.60
2022-10-03T06:26:46.785Z,10.59
2022-10-03T06:30:17.082Z,10.59
2022-10-03T06:33:57.737Z,10.63
2022-10-03T06:37:08.625Z,10.72
2022-10-03T06:40:26.307Z,10.77
2022-10-03T06:43:34.243Z,10.80
2022-10-03T06:47:00.639Z,10.82
2022-10-03T06:50:27.605Z,10.90
2022-10-03T06:53:45.982Z,10.84
2022-10-03T06:57:16.156Z,10.82
2022-10-03T07:00:23.433Z,10.82
2022-10-03T07:03:46.697Z,10.81
2022-10-03T07:07:17.818Z,10.79
2022-10-03T07:10:22.075Z,10.75
2022-10-03T07:13:53.118Z,10.65
2022-10-03T07:17:16.912Z,10.58
2022-10-03T07:20:43.655Z,10.56
2022-10-03T07:24:26.128Z,10.53
2022-10-03T07:28:05.856Z,10.50
2022-10-03T07:31:33.379Z,10.46
2022-10-03T07:35:14.757Z,10.42
2022-10-03T07:38:52.426Z,10.28
2022-10-03T07:42:51.733Z,10.00
2022-10-03T07:46:05.873Z,9.80
2022-10-03T07:49:18.799Z,9.70
2022-10-03T07:52:58.362Z,9.62
2022-10-03T07:56:32.868Z,9.64
2022-10-03T07:59:41.198Z,9.68
2022-10-03T08:03:11.106Z,9.70
2022-10-03T08:06:39.028Z,9.76
2022-10-03T08:09:50.766Z,9.86
2022-10-03T08:13:06.932Z,9.93
2022-10-03T08:16:08.751Z,9.99
2022-10-03T08:19:28.827Z,10.07
2022-10-03T08:22:36.527Z,10.21
2022-10-03T08:26:14.142Z,10.32
2022-10-03T08:29:40.723Z,10.45
2022-10-03T08:33:08.887Z,10.53
2022-10-03T08:36:49.677Z,10.71
2022-10-03T08:40:15.818Z,10.86
2022-10-03T08:43:35.758Z,11.06
2022-10-03T08:46:55.609Z,11.06
2022-10-03T08:50:14.240Z,10.95
2022-10-03T08:53:37.751Z,10.81
2022-10-03T08:57:10.651Z,10.74
2022-10-03T09:00:48.075Z,10.68
2022-10-03T09:03:55.908Z,10.54
2022-10-03T09:07:19.228Z,10.48
2022-10-03T09:10:27.649Z,10.49
2022-10-03T09:13:44.628Z,10.51
2022-10-03T09:17:02.331Z,10.59
2022-10-03T09:20:29.414Z,10.70
2022-10-03T09:23:52.138Z,10.83
2022-10-03T09:27:15.655Z,10.99
2022-10-03T09:30:24.864Z,11.01
2022-10-03T09:34:09.373Z,11.06
2022-10-03T09:37:39.255Z,11.31
2022-10-03T09:41:19.094Z,11.40
2022-10-03T09:44:56.686Z,11.36
2022-10-03T09:48:29.115Z,11.42
2022-10-03T09:51:37.314Z,11.44
2022-10-03T09:55:13.658Z,11.37
2022-10-03T09:59:07.011Z,11.31
2022-10-03T10:02:46.985Z,11.26
2022-10-03T10:06:07.812Z,11.23
2022-10-03T10:09:36.392Z,11.19
2022-10-03T10:12:38.379Z,11.15
2022-10-03T10:16:10.011Z,11.16
2022-10-03T10:19:23.729Z,11.22
2022-10-03T10:23:04.680Z,11.25
2022-10-03T10:26:29.233Z,11.20
2022-10-03T10:30:04.009Z,11.13
2022-10-03T10:33:24.855Z,11.07
2022-10-03T10:37:02.155Z,11.02
2022-10-03T10:40:22.889Z,11.01
2022-10-03T10:43:33.943Z,11.03
2022-10-03T10:47:04.265Z,11.08
2022-10-03T10:50:24.847Z,11.09
2022-10-03T10:53:54.778Z,11.07
2022-10-03T10:57:14.462Z,11.08
2022-10-03T11:00:22.666Z,11.07
2022-10-03T11:03:51.826Z,11.06
2022-10-03T11:07:27.306Z,11.02
2022-10-03T11:10:44.411Z,10.96
2022-10-03T11:14:24.991Z,10.89
2022-10-03T11:17:41.522Z,10.85
2022-10-03T11:21:08.188Z,10.82
2022-10-03T11:24:47.870Z,10.80
2022-10-03T11:28:11.570Z,10.79
2022-10-03T11:31:44.749Z,10.67
2022-10-03T11:35:05.705Z,10.57
2022-10-03T11:38:28.957Z,10.44
2022-10-03T11:42:02.221Z,10.38
2022-10-03T11:45:06.416Z,10.40
2022-10-03T11:48:42.614Z,10.48
2022-10-03T11:51:53.565Z,10.59
2022-10-03T11:55:15.376Z,10.69
2022-10-03T11:58:54.921Z,10.82
2022-10-03T12:01:56.798Z,10.96
2022-10-03T12:05:20.936Z,11.09
2022-10-03T12:08:54.020Z,11.25
2022-10-03T12:12:02.499Z,11.43
2022-10-03T12:15:19.637Z,11.60
2022-10-03T12:18:47.757Z,11.74
2022-10-03T12:22:08.442Z,11.79
2022-10-03T12:25:21.450Z,11.75
2022-10-03T12:28:25.825Z,11.69
2022-10-03T12:31:49.572Z,11.61
2022-10-03T12:35:39.538Z,11.57
2022-10-03T12:39:22.211Z,11.53
2022-10-03T12:42:48.510Z,11.51
2022-10-03T12:46:13.644Z,11.56
2022-10-03T12:49:50.682Z,11.67
2022-10-03T12:53:16.550Z,11.77
2022-10-03T12:56:24.131Z,11.92
2022-10-03T12:59:44.391Z,12.20
2022-10-03T13:03:11.396Z,12.52
2022-10-03T13:07:02.439Z,12.76
2022-10-03T13:10:06.665Z,12.82
2022-10-03T13:13:30.346Z,12.86
2022-10-03T13:16:41.489Z,12.80
2022-10-03T13:20:01.046Z,12.76
2022-10-03T13:23:21.179Z,12.79
2022-10-03T13:26:38.292Z,12.88
2022-10-03T13:30:05.661Z,13.13
2022-10-03T13:33:22.700Z,13.47
2022-10-03T13:36:25.647Z,13.72
2022-10-03T13:39:34.130Z,13.81
2022-10-03T13:42:39.985Z,13.86
2022-10-03T13:45:44.855Z,13.84
2022-10-03T13:49:01.032Z,13.55
2022-10-03T13:52:29.517Z,13.32
2022-10-03T13:55:56.361Z,13.08
2022-10-03T13:59:19.035Z,12.91
2022-10-03T14:02:40.502Z,12.78
2022-10-03T14:06:11.048Z,12.77
2022-10-03T14:09:21.990Z,12.80
2022-10-03T14:12:55.789Z,12.83
2022-10-03T14:16:16.848Z,12.85
2022-10-03T14:19:47.227Z,12.93
2022-10-03T14:23:22.141Z,12.94
2022-10-03T14:26:38.496Z,12.92
2022-10-03T14:29:57.541Z,13.01
2022-10-03T14:33:11.028Z,12.92
2022-10-03T14:36:32.993Z,12.86
2022-10-03T14:39:58.455Z,12.80
2022-10-03T14:43:36.068Z,12.77
2022-10-03T14:47:01.440Z,12.74
2022-10-03T14:50:05.047Z,12.78
2022-10-03T14:53:24.648Z,12.94
2022-10-03T14:56:26.916Z,12.84
2022-10-03T14:59:30.150Z,12.70
2022-10-03T15:02:36.938Z,12.57
2022-10-03T15:05:52.289Z,12.45
2022-10-03T15:08:56.247Z,12.31
2022-10-03T15:12:09.820Z,12.20
2022-10-03T15:15:19.959Z,12.08
2022-10-03T15:18:24.539Z,11.95
2022-10-03T15:21:27.856Z,11.76
2022-10-03T15:24:35.477Z,11.56
2022-10-03T15:27:40.897Z,11.38
2022-10-03T15:30:43.164Z,11.27
2022-10-03T15:33:45.969Z,11.19
2022-10-03T15:36:55.842Z,11.04
2022-10-03T15:40:01.188Z,10.83
2022-10-03T15:43:33.647Z,10.68
2022-10-03T15:46:46.501Z,10.57
2022-10-03T15:50:04.780Z,10.49
2022-10-03T15:53:35.515Z,10.43
2022-10-03T15:56:41.803Z,10.40
2022-10-03T16:00:03.768Z,10.36
2022-10-03T16:03:14.590Z,10.31
2022-10-03T16:06:24.143Z,10.23
2022-10-03T16:09:48.145Z,10.17
2022-10-03T16:13:14.144Z,10.11
2022-10-03T16:16:18.632Z,10.05
2022-10-03T16:19:40.715Z,10.02
2022-10-03T16:22:47.069Z,9.99
2022-10-03T16:25:59.040Z,10.01
2022-10-03T16:29:19.239Z,10.07
2022-10-03T16:32:24.907Z,10.11
2022-10-03T16:36:19.420Z,10.14
2022-10-03T16:39:33.565Z,10.06
2022-10-03T16:42:42.478Z,9.92
2022-10-03T16:45:46.836Z,9.88
2022-10-03T16:49:15.028Z,9.89
2022-10-03T16:52:24.139Z,9.89
2022-10-03T16:55:26.118Z,9.91
2022-10-03T16:58:30.977Z,9.93
2022-10-03T17:01:41.048Z,9.92
2022-10-03T17:04:56.027Z,9.92
2022-10-03T17:08:23.635Z,9.94
2022-10-03T17:11:29.078Z,9.97
2022-10-03T17:14:39.269Z,9.98
2022-10-03T17:18:03.229Z,9.98
2022-10-03T17:21:08.436Z,9.98
2022-10-03T17:24:14.875Z,9.99
2022-10-03T17:27:19.631Z,9.99
2022-10-03T17:30:33.683Z,9.99
2022-10-03T17:33:45.860Z,9.99
2022-10-03T17:37:05.144Z,9.98
2022-10-03T17:40:16.818Z,9.99
2022-10-03T17:43:43.618Z,9.97
2022-10-03T17:46:58.992Z,9.96
2022-10-03T17:50:10.297Z,9.97
2022-10-03T17:53:29.884Z,9.95
2022-10-03T17:56:34.134Z,9.92
2022-10-03T17:59:46.006Z,9.91
2022-10-03T18:03:08.682Z,9.90
2022-10-03T18:06:29.736Z,9.91
2022-10-03T18:09:40.844Z,9.89
2022-10-03T18:12:43.783Z,9.87
2022-10-03T18:16:04.514Z,9.83
2022-10-03T18:19:31.127Z,9.80
2022-10-03T18:22:41.121Z,9.74
2022-10-03T18:29:53.146Z,9.71
2022-10-03T18:32:58.750Z,9.73
2022-10-03T18:36:08.399Z,9.73
2022-10-03T18:39:21.179Z,9.75
2022-10-03T18:42:28.454Z,9.74
2022-10-03T18:45:38.430Z,9.70
2022-10-03T18:49:22.934Z,9.69
2022-10-03T18:52:19.844Z,9.73
2022-10-03T18:55:26.864Z,9.73
2022-10-03T18:58:33.437Z,9.75
2022-10-03T19:01:35.426Z,9.77
2022-10-03T19:04:40.979Z,9.74
2022-10-03T19:07:51.703Z,9.72
2022-10-03T19:11:22.191Z,9.69
2022-10-03T19:14:39.591Z,9.67
2022-10-03T19:17:59.990Z,9.65
2022-10-03T19:21:05.041Z,9.64
2022-10-03T19:24:34.402Z,9.64
2022-10-03T19:27:51.437Z,9.66
2022-10-03T19:31:14.602Z,9.64
2022-10-03T19:34:32.442Z,9.63
2022-10-03T19:37:45.592Z,9.58
2022-10-03T19:40:47.750Z,9.54
2022-10-03T19:43:50.159Z,9.47
2022-10-03T19:47:15.075Z,9.41
2022-10-03T19:50:33.887Z,9.33
2022-10-03T19:53:35.839Z,9.25
2022-10-03T19:56:37.914Z,9.18
2022-10-03T19:59:50.503Z,9.15
2022-10-03T20:03:16.794Z,9.13
2022-10-03T20:06:26.828Z,9.10
2022-10-03T20:09:29.814Z,9.08
2022-10-03T20:12:34.963Z,9.04
2022-10-03T20:15:44.053Z,9.02
2022-10-03T20:18:48.988Z,9.00
2022-10-03T20:21:55.587Z,9.01
2022-10-03T20:24:58.687Z,9.04
2022-10-03T20:28:03.096Z,9.02
2022-10-03T20:31:05.016Z,9.01
2022-10-03T20:34:12.921Z,9.01
2022-10-03T20:37:40.548Z,9.03
2022-10-03T20:40:45.694Z,9.04
2022-10-03T20:44:15.761Z,9.02
2022-10-03T20:47:36.318Z,8.97
2022-10-03T20:50:46.386Z,8.96
2022-10-03T20:53:53.171Z,8.95
2022-10-03T20:57:09.534Z,8.97
2022-10-03T21:00:14.626Z,9.15
2022-10-03T21:03:28.842Z,9.26
2022-10-03T21:07:04.253Z,9.34
2022-10-03T21:10:41.758Z,9.40
2022-10-03T21:14:03.752Z,9.44
2022-10-03T21:17:06.788Z,9.47
2022-10-03T21:20:14.402Z,9.51
2022-10-03T21:23:23.055Z,9.54
2022-10-03T21:26:27.854Z,9.60
2022-10-03T21:29:33.122Z,9.65
2022-10-03T21:33:00.042Z,9.67
2022-10-03T21:36:11.090Z,9.69
2022-10-03T21:39:32.814Z,9.69
2022-10-03T21:42:54.173Z,9.69
2022-10-03T21:46:24.361Z,9.69
2022-10-03T21:49:58.786Z,9.69
2022-10-03T21:53:17.399Z,9.70
2022-10-03T21:56:19.171Z,9.69
2022-10-03T21:59:33.164Z,9.69
2022-10-03T22:02:42.439Z,9.69
2022-10-03T22:06:03.436Z,9.71
2022-10-03T22:09:12.316Z,9.71
2022-10-03T22:12:14.430Z,9.72
2022-10-03T22:15:21.343Z,9.72
2022-10-03T22:18:23.511Z,9.73
2022-10-03T22:21:27.130Z,9.73
2022-10-03T22:25:04.085Z,9.72
2022-10-03T22:28:18.967Z,9.72
2022-10-03T22:31:35.068Z,9.72
2022-10-03T22:34:55.655Z,9.72
2022-10-03T22:37:57.954Z,9.74
2022-10-03T22:41:02.466Z,9.75
2022-10-03T22:44:07.434Z,9.75
2022-10-03T22:47:30.479Z,9.76
2022-10-03T22:50:34.622Z,9.76
2022-10-03T22:53:38.779Z,9.76
2022-10-03T22:56:51.390Z,9.75
2022-10-03T22:59:59.343Z,9.73
2022-10-03T23:03:10.116Z,9.72
2022-10-03T23:07:05.327Z,9.70
2022-10-03T23:10:26.446Z,9.68
2022-10-03T23:13:37.672Z,9.67
2022-10-03T23:16:51.972Z,9.68
2022-10-03T23:20:12.716Z,9.67
2022-10-03T23:23:19.689Z,9.66
2022-10-03T23:26:37.476Z,9.64
2022-10-03T23:29:39.798Z,9.59
2022-10-03T23:32:47.708Z,9.55
2022-10-03T23:35:50.735Z,9.51
2022-10-03T23:38:54.895Z,9.49
2022-10-03T23:41:59.208Z,9.48
2022-10-03T23:45:12.341Z,9.48
2022-10-03T23:48:19.073Z,9.46
2022-10-03T23:51:25.693Z,9.45
2022-10-03T23:54:28.297Z,9.43
2022-10-03T23:57:42.432Z,9.40
